createdAt,value
2022-12-15T00:02:36.545Z,92.41
2022-12-15T00:05:21.700Z,93.73
2022-12-15T00:08:07.220Z,93.64
2022-12-15T00:10:52.567Z,92.90
2022-12-15T00:13:37.787Z,92.71
2022-12-15T00:16:23.868Z,93.07
2022-12-15T00:19:10.163Z,93.18
2022-12-15T00:21:55.558Z,93.15
2022-12-15T00:24:40.892Z,92.85
2022-12-15T00:27:26.356Z,92.60
2022-12-15T00:30:11.666Z,92.19
2022-12-15T00:32:56.966Z,92.64
2022-12-15T00:35:43.656Z,93.61
2022-12-15T00:38:31.026Z,93.88
2022-12-15T00:40:59.952Z,94.04
2022-12-15T00:43:28.163Z,94.12
2022-12-15T00:46:14.091Z,94.88
2022-12-15T00:48:42.062Z,94.70
2022-12-15T00:51:10.595Z,94.82
2022-12-15T00:53:56.157Z,93.81
2022-12-15T00:56:41.290Z,94.89
2022-12-15T00:59:26.636Z,93.84
2022-12-15T01:02:12.139Z,94.62
2022-12-15T01:04:57.795Z,93.52
2022-12-15T01:07:45.055Z,94.03
2022-12-15T01:10:36.241Z,94.58
2022-12-15T01:13:22.181Z,93.97
2022-12-15T01:16:07.662Z,93.85
2022-12-15T01:18:52.780Z,94.17
2022-12-15T01:21:24.757Z,93.77
2022-12-15T01:23:54.664Z,93.81
2022-12-15T01:26:22.314Z,94.20
2022-12-15T01:28:49.834Z,93.17
2022-12-15T01:31:17.525Z,93.38
2022-12-15T01:33:45.063Z,93.99
2022-12-15T01:36:12.788Z,93.92
2022-12-15T01:38:40.433Z,92.62
2022-12-15T01:41:11.033Z,92.69
2022-12-15T01:43:41.181Z,92.57
2022-12-15T01:46:10.995Z,92.44
2022-12-15T01:48:49.988Z,92.95
2022-12-15T01:51:24.608Z,91.90
2022-12-15T01:53:58.319Z,90.75
2022-12-15T01:56:31.215Z,92.04
2022-12-15T01:59:04.007Z,92.37
2022-12-15T02:01:32.037Z,92.32
2022-12-15T02:03:59.807Z,92.88
2022-12-15T02:06:29.057Z,92.91
2022-12-15T02:08:59.886Z,92.34
2022-12-15T02:11:53.317Z,92.13
2022-12-15T02:14:32.499Z,91.90
2022-12-15T02:17:13.475Z,91.91
2022-12-15T02:20:08.695Z,92.33
2022-12-15T02:22:51.755Z,92.69
2022-12-15T02:25:33.112Z,92.24
2022-12-15T02:28:07.386Z,92.02
2022-12-15T02:30:46.502Z,92.88
2022-12-15T02:33:21.015Z,91.86
2022-12-15T02:35:57.204Z,92.38
2022-12-15T02:38:33.284Z,92.33
2022-12-15T02:41:01.932Z,92.52
2022-12-15T02:43:31.624Z,92.92
2022-12-15T02:46:17.075Z,92.68
2022-12-15T02:48:55.879Z,92.08
2022-12-15T02:51:35.327Z,91.99
2022-12-15T02:54:34.092Z,92.90
2022-12-15T02:57:06.443Z,92.20
2022-12-15T02:59:41.220Z,93.01
2022-12-15T03:02:10.986Z,93.25
2022-12-15T03:04:39.084Z,93.74
2022-12-15T03:07:10.405Z,92.85
2022-12-15T03:09:38.107Z,93.01
2022-12-15T03:12:06.136Z,93.29
2022-12-15T03:14:34.056Z,92.77
2022-12-15T03:17:01.685Z,92.93
2022-12-15T03:19:30.748Z,91.74
2022-12-15T03:21:58.356Z,92.30
2022-12-15T03:24:25.911Z,92.13
2022-12-15T03:26:53.497Z,92.29
2022-12-15T03:29:21.132Z,92.63
2022-12-15T03:31:49.724Z,91.39
2022-12-15T03:34:18.017Z,91.87
2022-12-15T03:36:46.988Z,92.83
2022-12-15T03:39:14.661Z,92.23
2022-12-15T03:41:42.476Z,92.41
2022-12-15T03:44:10.148Z,93.12
2022-12-15T03:46:37.798Z,92.52
2022-12-15T03:49:05.671Z,93.40
2022-12-15T03:51:33.188Z,92.87
2022-12-15T03:54:02.075Z,92.38
2022-12-15T03:56:29.662Z,92.21
2022-12-15T03:58:57.419Z,92.26
2022-12-15T04:01:29.256Z,94.13
2022-12-15T04:04:00.950Z,93.78
2022-12-15T04:06:29.869Z,94.22
2022-12-15T04:08:57.539Z,94.47
2022-12-15T04:11:26.464Z,94.28
2022-12-15T04:13:54.097Z,93.86
2022-12-15T04:16:21.832Z,93.72
2022-12-15T04:19:10.832Z,93.43
2022-12-15T04:21:37.464Z,94.97
2022-12-15T04:24:23.405Z,94.94
2022-12-15T04:27:10.111Z,94.55
2022-12-15T04:29:55.338Z,93.80
2022-12-15T04:32:40.730Z,92.51
2022-12-15T04:35:26.584Z,92.23
2022-12-15T04:38:11.869Z,93.43
2022-12-15T04:40:57.313Z,93.87
2022-12-15T04:43:44.003Z,94.06
2022-12-15T04:46:29.407Z,93.74
2022-12-15T04:49:14.532Z,94.54
2022-12-15T04:51:59.912Z,94.30
2022-12-15T04:54:45.286Z,94.28
2022-12-15T04:57:30.330Z,93.43
2022-12-15T05:00:17.111Z,93.06
2022-12-15T05:03:02.517Z,93.88
2022-12-15T05:05:47.746Z,93.09
2022-12-15T05:08:33.031Z,92.15
2022-12-15T05:11:18.425Z,91.75
2022-12-15T05:14:03.805Z,92.66
2022-12-15T05:16:50.570Z,91.60
2022-12-15T05:19:35.855Z,92.79
2022-12-15T05:22:21.178Z,92.93
2022-12-15T05:25:06.350Z,93.92
2022-12-15T05:27:51.700Z,93.08
2022-12-15T05:30:36.994Z,91.97
2022-12-15T05:33:06.193Z,92.59
2022-12-15T05:35:33.804Z,93.08
2022-12-15T05:38:01.377Z,93.02
2022-12-15T05:40:28.982Z,93.11
2022-12-15T05:42:59.154Z,92.27
2022-12-15T05:45:27.040Z,92.54
2022-12-15T05:47:55.324Z,92.52
2022-12-15T05:50:24.383Z,91.77
2022-12-15T05:52:52.002Z,91.66
2022-12-15T05:55:20.067Z,91.70
2022-12-15T05:57:52.464Z,92.52
2022-12-15T06:00:21.096Z,92.34
2022-12-15T06:02:49.983Z,92.32
2022-12-15T06:05:18.025Z,92.51
2022-12-15T06:07:46.954Z,92.35
2022-12-15T06:10:14.648Z,92.68
2022-12-15T06:12:42.165Z,93.07
2022-12-15T06:15:10.606Z,93.06
2022-12-15T06:17:38.166Z,92.71
2022-12-15T06:20:06.504Z,92.90
2022-12-15T06:22:34.406Z,92.23
2022-12-15T06:25:03.334Z,92.43
2022-12-15T06:27:30.863Z,91.97
2022-12-15T06:29:58.439Z,91.51
2022-12-15T06:32:25.950Z,91.85
2022-12-15T06:34:53.518Z,92.18
2022-12-15T06:37:21.084Z,93.07
2022-12-15T06:39:48.680Z,92.91
2022-12-15T06:42:17.648Z,91.48
2022-12-15T06:44:45.203Z,92.35
2022-12-15T06:47:12.874Z,92.61
2022-12-15T06:49:40.564Z,92.45
2022-12-15T06:52:09.015Z,93.02
2022-12-15T06:54:36.597Z,100.00
2022-12-15T06:57:04.344Z,100.00
2022-12-15T06:59:33.208Z,100.00
2022-12-15T07:02:01.499Z,100.00
2022-12-15T07:04:30.319Z,100.00
2022-12-15T07:06:57.984Z,98.44
2022-12-15T07:09:27.221Z,94.26
2022-12-15T07:11:54.806Z,93.82
2022-12-15T07:14:23.067Z,92.55
2022-12-15T07:16:52.004Z,96.00
2022-12-15T07:19:19.600Z,91.96
2022-12-15T07:21:47.295Z,91.74
2022-12-15T07:24:15.112Z,91.25
2022-12-15T07:26:43.193Z,91.80
2022-12-15T07:29:11.711Z,91.72
2022-12-15T07:31:39.517Z,91.67
2022-12-15T07:34:08.511Z,92.19
2022-12-15T07:36:36.050Z,91.67
2022-12-15T07:39:05.663Z,92.09
2022-12-15T07:41:33.478Z,91.50
2022-12-15T07:44:02.231Z,92.36
2022-12-15T07:46:29.955Z,92.60
2022-12-15T07:48:57.694Z,91.49
2022-12-15T07:51:27.557Z,91.41
2022-12-15T07:53:55.210Z,90.89
2022-12-15T07:56:22.790Z,91.39
2022-12-15T07:58:52.232Z,92.29
2022-12-15T08:01:20.029Z,91.18
2022-12-15T08:03:49.045Z,91.35
2022-12-15T08:06:17.218Z,90.25
2022-12-15T08:08:50.438Z,91.19
2022-12-15T08:11:20.702Z,90.43
2022-12-15T08:14:06.885Z,91.12
2022-12-15T08:16:36.713Z,91.94
2022-12-15T08:19:06.216Z,91.87
2022-12-15T08:21:34.588Z,91.47
2022-12-15T08:24:04.039Z,90.72
2022-12-15T08:26:31.850Z,90.20
2022-12-15T08:29:32.034Z,90.81
2022-12-15T08:31:51.410Z,91.16
2022-12-15T08:34:19.065Z,91.43
2022-12-15T08:36:46.643Z,95.24
2022-12-15T08:39:16.284Z,92.30
2022-12-15T08:41:43.878Z,89.55
2022-12-15T08:44:11.457Z,90.46
2022-12-15T08:46:39.796Z,90.21
2022-12-15T08:49:08.592Z,89.69
2022-12-15T08:51:36.152Z,89.45
2022-12-15T08:54:03.695Z,89.20
2022-12-15T08:56:32.592Z,88.75
2022-12-15T08:59:01.981Z,89.63
2022-12-15T09:01:32.182Z,89.00
2022-12-15T09:04:01.283Z,87.72
2022-12-15T09:06:31.089Z,87.34
2022-12-15T09:09:00.150Z,88.31
2022-12-15T09:11:28.561Z,88.73
2022-12-15T09:13:57.791Z,89.10
2022-12-15T09:16:25.945Z,89.15
2022-12-15T09:18:54.972Z,88.53
2022-12-15T09:21:25.996Z,88.61
2022-12-15T09:23:55.221Z,90.14
2022-12-15T09:26:24.247Z,89.28
2022-12-15T09:28:52.275Z,87.96
2022-12-15T09:31:23.227Z,87.18
2022-12-15T09:33:52.515Z,86.78
2022-12-15T09:36:20.631Z,87.10
2022-12-15T09:38:48.295Z,86.85
2022-12-15T09:41:23.092Z,86.61
2022-12-15T09:43:56.511Z,86.83
2022-12-15T09:46:35.716Z,86.50
2022-12-15T09:49:07.022Z,86.36
2022-12-15T09:51:40.103Z,85.88
2022-12-15T09:54:09.485Z,85.96
2022-12-15T09:56:43.431Z,85.30
2022-12-15T09:59:27.113Z,85.70
2022-12-15T10:02:15.215Z,85.49
2022-12-15T10:04:50.834Z,84.05
2022-12-15T10:07:27.950Z,84.38
2022-12-15T10:09:55.664Z,83.91
2022-12-15T10:12:29.908Z,83.39
2022-12-15T10:15:10.034Z,81.40
2022-12-15T10:17:47.042Z,82.14
2022-12-15T10:20:20.234Z,81.38
2022-12-15T10:22:50.502Z,82.08
2022-12-15T10:25:29.319Z,81.90
2022-12-15T10:28:18.967Z,81.87
2022-12-15T10:30:53.121Z,81.09
2022-12-15T10:33:24.866Z,80.34
2022-12-15T10:35:54.151Z,81.22
2022-12-15T10:38:27.066Z,81.76
2022-12-15T10:40:57.214Z,81.36
2022-12-15T10:43:29.128Z,80.51
2022-12-15T10:46:08.299Z,81.21
2022-12-15T10:48:37.926Z,80.01
2022-12-15T10:51:26.545Z,79.18
2022-12-15T10:53:55.868Z,79.41
2022-12-15T10:56:32.687Z,78.35
2022-12-15T10:59:03.918Z,80.26
2022-12-15T11:01:33.944Z,78.30
2022-12-15T11:04:03.141Z,82.42
2022-12-15T11:06:33.477Z,78.25
2022-12-15T11:09:09.949Z,77.78
2022-12-15T11:12:04.616Z,76.11
2022-12-15T11:14:44.749Z,77.18
2022-12-15T11:17:17.626Z,77.05
2022-12-15T11:19:55.256Z,76.93
2022-12-15T11:22:36.262Z,76.32
2022-12-15T11:25:14.671Z,77.36
2022-12-15T11:27:45.933Z,77.72
2022-12-15T11:30:15.919Z,77.43
2022-12-15T11:32:46.904Z,77.34
2022-12-15T11:35:23.664Z,76.28
2022-12-15T11:37:57.654Z,76.67
2022-12-15T11:40:36.222Z,75.97
2022-12-15T11:43:33.737Z,75.16
2022-12-15T11:46:21.361Z,77.98
2022-12-15T11:49:00.876Z,76.12
2022-12-15T11:51:38.113Z,77.33
2022-12-15T11:54:17.964Z,77.00
2022-12-15T11:56:51.568Z,76.17
2022-12-15T11:59:48.570Z,76.22
2022-12-15T12:02:35.075Z,77.68
2022-12-15T12:05:19.089Z,77.00
2022-12-15T12:07:51.472Z,77.55
2022-12-15T12:10:31.986Z,76.96
2022-12-15T12:13:12.911Z,86.49
2022-12-15T12:15:55.557Z,79.26
2022-12-15T12:18:27.044Z,78.38
2022-12-15T12:21:02.280Z,77.98
2022-12-15T12:23:37.798Z,78.18
2022-12-15T12:26:12.933Z,78.21
2022-12-15T12:28:46.768Z,77.96
2022-12-15T12:31:27.703Z,76.24
2022-12-15T12:33:59.301Z,76.99
2022-12-15T12:36:27.732Z,77.24
2022-12-15T12:38:59.063Z,77.37
2022-12-15T12:41:37.706Z,76.21
2022-12-15T12:44:12.203Z,75.78
2022-12-15T12:46:45.554Z,76.04
2022-12-15T12:49:26.426Z,76.10
2022-12-15T12:51:56.441Z,76.43
2022-12-15T12:54:50.289Z,76.34
2022-12-15T12:57:37.333Z,77.01
2022-12-15T13:00:22.310Z,76.34
2022-12-15T13:03:09.921Z,75.88
2022-12-15T13:05:39.099Z,75.89
2022-12-15T13:08:29.882Z,74.45
2022-12-15T13:11:38.215Z,74.23
2022-12-15T13:14:10.422Z,73.96
2022-12-15T13:17:01.364Z,73.64
2022-12-15T13:20:02.869Z,74.68
2022-12-15T13:22:33.931Z,73.88
2022-12-15T13:25:02.098Z,73.98
2022-12-15T13:27:38.236Z,72.81
2022-12-15T13:30:16.755Z,71.89
2022-12-15T13:32:46.488Z,71.84
2022-12-15T13:35:24.352Z,70.35
2022-12-15T13:37:55.726Z,70.20
2022-12-15T13:40:34.789Z,68.23
2022-12-15T13:43:38.104Z,68.05
2022-12-15T13:46:12.876Z,68.89
2022-12-15T13:48:43.607Z,68.49
2022-12-15T13:51:34.094Z,67.85
2022-12-15T13:54:05.803Z,68.57
2022-12-15T13:56:50.949Z,67.49
2022-12-15T13:59:30.419Z,67.20
2022-12-15T14:01:58.067Z,67.60
2022-12-15T14:04:27.698Z,66.82
2022-12-15T14:06:57.564Z,67.62
2022-12-15T14:09:30.395Z,67.36
2022-12-15T14:11:59.399Z,67.05
2022-12-15T14:14:31.372Z,67.04
2022-12-15T14:17:01.815Z,67.42
2022-12-15T14:19:38.873Z,69.29
2022-12-15T14:22:27.052Z,69.15
2022-12-15T14:25:01.191Z,68.94
2022-12-15T14:27:30.438Z,69.33
2022-12-15T14:30:19.033Z,71.26
2022-12-15T14:32:50.521Z,71.08
2022-12-15T14:35:23.498Z,72.75
2022-12-15T14:37:51.293Z,73.20
2022-12-15T14:43:14.619Z,74.62
2022-12-15T14:45:43.586Z,74.47
2022-12-15T14:48:40.147Z,74.09
2022-12-15T14:51:01.518Z,74.64
2022-12-15T14:53:34.643Z,74.82
2022-12-15T14:56:14.604Z,75.56
2022-12-15T14:58:43.115Z,75.38
2022-12-15T15:01:25.820Z,76.34
2022-12-15T15:03:05.969Z,74.40
2022-12-15T15:04:01.044Z,76.95
2022-12-15T15:06:32.445Z,77.71
2022-12-15T15:09:12.531Z,77.65
2022-12-15T15:11:42.785Z,77.48
2022-12-15T15:14:14.827Z,78.21
2022-12-15T15:16:44.606Z,79.38
2022-12-15T15:19:20.871Z,78.69
2022-12-15T15:21:48.800Z,78.99
2022-12-15T15:24:26.198Z,79.32
2022-12-15T15:26:54.365Z,79.46
2022-12-15T15:29:41.324Z,79.59
2022-12-15T15:32:17.383Z,79.19
2022-12-15T15:34:46.961Z,79.52
2022-12-15T15:37:19.508Z,79.63
2022-12-15T15:39:49.422Z,80.12
2022-12-15T15:42:17.091Z,80.91
2022-12-15T15:44:44.874Z,80.72
2022-12-15T15:47:22.398Z,81.62
2022-12-15T15:49:50.442Z,81.04
2022-12-15T15:52:18.044Z,80.65
2022-12-15T15:54:46.471Z,81.35
2022-12-15T15:57:16.088Z,81.49
2022-12-15T15:59:44.156Z,81.90
2022-12-15T16:02:13.456Z,81.81
2022-12-15T16:04:43.359Z,81.67
2022-12-15T16:07:21.104Z,81.40
2022-12-15T16:09:49.257Z,81.16
2022-12-15T16:12:27.567Z,81.84
2022-12-15T16:14:55.868Z,81.97
2022-12-15T16:17:23.943Z,82.10
2022-12-15T16:19:52.815Z,80.85
2022-12-15T16:22:22.374Z,81.33
2022-12-15T16:24:49.925Z,81.01
2022-12-15T16:27:17.632Z,81.48
2022-12-15T16:29:45.413Z,81.14
2022-12-15T16:32:13.249Z,81.64
2022-12-15T16:34:41.891Z,81.49
2022-12-15T16:37:25.009Z,81.54
2022-12-15T16:39:52.917Z,81.52
2022-12-15T16:42:20.510Z,82.31
2022-12-15T16:44:48.086Z,82.17
2022-12-15T16:47:16.022Z,82.66
2022-12-15T16:49:43.629Z,81.10
2022-12-15T16:52:19.307Z,81.60
2022-12-15T16:54:48.987Z,81.31
2022-12-15T16:57:16.861Z,81.75
2022-12-15T16:59:44.447Z,81.47
2022-12-15T17:02:26.952Z,80.54
2022-12-15T17:04:55.824Z,80.91
2022-12-15T17:07:27.522Z,80.99
2022-12-15T17:09:55.147Z,80.60
2022-12-15T17:12:22.980Z,81.29
2022-12-15T17:14:50.539Z,81.61
2022-12-15T17:17:19.844Z,82.10
2022-12-15T17:20:19.774Z,81.76
2022-12-15T17:22:38.888Z,81.89
2022-12-15T17:25:07.526Z,81.46
2022-12-15T17:27:35.098Z,81.28
2022-12-15T17:30:02.923Z,80.96
2022-12-15T17:32:31.452Z,81.09
2022-12-15T17:34:59.238Z,79.64
2022-12-15T17:37:33.469Z,80.26
2022-12-15T17:40:04.945Z,80.18
2022-12-15T17:42:33.230Z,80.08
2022-12-15T17:45:00.977Z,92.01
2022-12-15T17:47:30.305Z,82.40
2022-12-15T17:49:57.923Z,80.70
2022-12-15T17:52:30.015Z,79.81
2022-12-15T17:54:58.285Z,79.80
2022-12-15T17:57:29.910Z,80.38
2022-12-15T17:59:57.534Z,80.46
2022-12-15T18:02:25.279Z,79.63
2022-12-15T18:04:53.979Z,79.41
2022-12-15T18:07:23.501Z,80.01
2022-12-15T18:09:52.023Z,80.25
2022-12-15T18:12:21.705Z,79.71
2022-12-15T18:14:51.099Z,80.95
2022-12-15T18:17:18.878Z,81.07
2022-12-15T18:19:46.615Z,81.46
2022-12-15T18:22:16.454Z,80.46
2022-12-15T18:24:44.109Z,80.35
2022-12-15T18:27:23.175Z,79.90
2022-12-15T18:29:52.445Z,80.04
2022-12-15T18:32:22.326Z,80.17
2022-12-15T18:34:50.378Z,79.70
2022-12-15T18:37:18.999Z,81.05
2022-12-15T18:39:47.435Z,80.23
2022-12-15T18:42:16.380Z,80.85
2022-12-15T18:44:47.160Z,79.98
2022-12-15T18:47:18.365Z,80.30
2022-12-15T18:49:46.360Z,80.83
2022-12-15T18:52:17.562Z,80.23
2022-12-15T18:54:45.440Z,80.75
2022-12-15T18:57:26.027Z,80.07
2022-12-15T18:59:54.529Z,80.48
2022-12-15T19:02:23.572Z,80.98
2022-12-15T19:04:51.294Z,81.17
2022-12-15T19:07:18.905Z,80.40
2022-12-15T19:09:46.675Z,81.49
2022-12-15T19:12:21.226Z,81.49
2022-12-15T19:14:51.281Z,81.54
2022-12-15T19:17:38.206Z,81.11
2022-12-15T19:20:33.398Z,81.17
2022-12-15T19:23:01.019Z,80.49
2022-12-15T19:25:30.765Z,80.69
2022-12-15T19:28:00.145Z,80.84
2022-12-15T19:30:31.315Z,81.13
2022-12-15T19:32:58.899Z,80.98
2022-12-15T19:35:29.061Z,81.77
2022-12-15T19:37:59.133Z,82.21
2022-12-15T19:40:30.113Z,81.77
2022-12-15T19:42:58.297Z,80.74
2022-12-15T19:45:27.843Z,81.02
2022-12-15T19:47:56.037Z,81.85
2022-12-15T19:50:25.742Z,82.11
2022-12-15T19:52:57.962Z,81.41
2022-12-15T19:55:28.951Z,81.36
2022-12-15T19:57:56.756Z,80.16
2022-12-15T20:00:25.055Z,80.43
2022-12-15T20:02:54.640Z,81.02
2022-12-15T20:05:23.758Z,81.54
2022-12-15T20:07:54.617Z,81.23
2022-12-15T20:10:29.417Z,80.62
2022-12-15T20:12:59.913Z,81.05
2022-12-15T20:15:27.934Z,80.99
2022-12-15T20:17:56.546Z,80.48
2022-12-15T20:20:26.782Z,80.53
2022-12-15T20:22:57.502Z,80.84
2022-12-15T20:25:28.624Z,80.15
2022-12-15T20:27:57.354Z,81.00
2022-12-15T20:30:28.329Z,81.20
2022-12-15T20:32:56.999Z,81.29
2022-12-15T20:35:25.171Z,80.91
2022-12-15T20:37:53.155Z,80.01
2022-12-15T20:40:24.347Z,80.45
2022-12-15T20:42:53.201Z,81.00
2022-12-15T20:45:24.712Z,81.40
2022-12-15T20:47:54.646Z,81.64
2022-12-15T20:50:32.591Z,80.92
2022-12-15T20:53:00.282Z,80.65
2022-12-15T20:55:29.600Z,81.31
2022-12-15T20:57:57.204Z,81.53
2022-12-15T21:00:25.032Z,80.23
2022-12-15T21:02:55.208Z,79.89
2022-12-15T21:05:25.330Z,80.60
2022-12-15T21:07:53.330Z,80.58
2022-12-15T21:10:21.667Z,80.28
2022-12-15T21:12:51.444Z,80.72
2022-12-15T21:15:22.245Z,81.08
2022-12-15T21:18:08.853Z,81.13
2022-12-15T21:20:40.898Z,81.12
2022-12-15T21:23:20.698Z,80.87
2022-12-15T21:25:48.822Z,80.89
2022-12-15T21:28:18.091Z,80.14
2022-12-15T21:30:46.022Z,79.78
2022-12-15T21:33:13.817Z,79.00
2022-12-15T21:35:43.033Z,79.76
2022-12-15T21:38:26.447Z,79.61
2022-12-15T21:40:59.336Z,79.62
2022-12-15T21:43:30.696Z,79.95
2022-12-15T21:45:59.043Z,80.00
2022-12-15T21:48:44.449Z,78.85
2022-12-15T21:51:16.823Z,80.14
2022-12-15T21:53:46.603Z,79.55
2022-12-15T21:56:18.467Z,80.16
2022-12-15T21:58:50.886Z,80.43
2022-12-15T22:01:21.474Z,79.26
2022-12-15T22:03:51.274Z,79.37
2022-12-15T22:06:20.576Z,79.26
2022-12-15T22:08:48.090Z,82.72
2022-12-15T22:11:23.103Z,80.97
2022-12-15T22:13:52.549Z,79.77
2022-12-15T22:16:22.719Z,79.41
2022-12-15T22:18:51.250Z,79.29
2022-12-15T22:21:19.142Z,80.40
2022-12-15T22:23:47.823Z,80.40
2022-12-15T22:26:19.966Z,80.36
2022-12-15T22:28:47.436Z,81.30
2022-12-15T22:31:16.436Z,81.20
2022-12-15T22:33:44.280Z,82.70
2022-12-15T22:36:11.752Z,82.46
2022-12-15T22:38:39.208Z,83.71
2022-12-15T22:41:07.207Z,84.07
2022-12-15T22:43:36.224Z,83.78
2022-12-15T22:46:04.655Z,84.36
2022-12-15T22:48:36.813Z,83.11
2022-12-15T22:51:05.234Z,83.92
2022-12-15T22:53:33.515Z,85.01
2022-12-15T22:56:01.679Z,85.14
2022-12-15T22:58:31.530Z,85.48
2022-12-15T23:00:59.800Z,86.40
2022-12-15T23:03:29.111Z,85.76
2022-12-15T23:05:58.576Z,86.05
2022-12-15T23:08:26.063Z,87.01
2022-12-15T23:11:11.077Z,86.18
2022-12-15T23:13:38.537Z,86.93
2022-12-15T23:16:21.424Z,87.21
2022-12-15T23:18:49.970Z,87.99
2022-12-15T23:21:21.044Z,89.20
2022-12-15T23:23:48.506Z,89.29
2022-12-15T23:26:16.638Z,89.57
2022-12-15T23:28:44.210Z,88.00
2022-12-15T23:31:11.989Z,88.87
2022-12-15T23:33:39.527Z,88.25
2022-12-15T23:36:07.292Z,88.30
2022-12-15T23:38:37.245Z,89.14
2022-12-15T23:41:05.035Z,87.90
2022-12-15T23:43:33.564Z,88.13
2022-12-15T23:46:02.654Z,88.96
2022-12-15T23:48:31.605Z,88.29
2022-12-15T23:51:05.942Z,88.40
2022-12-15T23:53:34.338Z,88.32
2022-12-15T23:56:10.657Z,88.26
2022-12-15T23:58:39.222Z,89.62
